createdAt,value
2019-01-14T00:00:55.867Z,12.50
2019-01-14T00:01:55.855Z,13.10
2019-01-14T00:02:55.852Z,14.50
2019-01-14T00:03:55.832Z,15.30
2019-01-14T00:04:55.827Z,12.90
2019-01-14T00:05:55.815Z,14.10
2019-01-14T00:06:55.801Z,15.50
2019-01-14T00:07:55.803Z,15.70
2019-01-14T00:08:55.779Z,15.90
2019-01-14T00:09:55.771Z,13.80
2019-01-14T00:10:55.758Z,15.00
2019-01-14T00:11:55.748Z,14.40
2019-01-14T00:12:55.750Z,15.80
2019-01-14T00:13:55.726Z,15.70
2019-01-14T00:14:55.715Z,14.40
2019-01-14T00:15:55.705Z,17.20
2019-01-14T00:16:55.695Z,15.80
2019-01-14T00:17:55.702Z,17.30
2019-01-14T00:18:55.687Z,14.60
2019-01-14T00:19:55.665Z,16.10
2019-01-14T00:20:55.652Z,18.90
2019-01-14T00:21:55.641Z,15.30
2019-01-14T00:22:55.640Z,16.70
2019-01-14T00:23:55.621Z,14.00
2019-01-14T00:24:55.615Z,15.50
2019-01-14T00:25:55.598Z,16.20
2019-01-14T00:26:55.590Z,20.20
2019-01-14T00:27:55.612Z,17.10
2019-01-14T00:28:55.568Z,16.30
2019-01-14T00:29:55.558Z,17.20
2019-01-14T00:30:55.546Z,15.10
2019-01-14T00:31:55.535Z,14.30
2019-01-14T00:32:55.523Z,18.10
2019-01-14T00:33:55.520Z,15.60
2019-01-14T00:34:55.502Z,14.00
2019-01-14T00:35:55.492Z,15.60
2019-01-14T00:36:55.479Z,14.50
2019-01-14T00:37:55.468Z,14.40
2019-01-14T00:38:55.466Z,16.40
2019-01-14T00:39:55.447Z,19.20
2019-01-14T00:40:55.437Z,13.00
2019-01-14T00:41:55.429Z,12.90
2019-01-14T00:42:55.416Z,15.50
2019-01-14T00:43:55.415Z,13.90
2019-01-14T00:44:55.396Z,15.10
2019-01-14T00:45:55.383Z,14.50
2019-01-14T00:46:55.373Z,17.30
2019-01-14T00:47:55.363Z,13.50
2019-01-14T00:48:55.363Z,16.80
2019-01-14T00:49:55.340Z,15.10
2019-01-14T00:50:55.330Z,17.30
2019-01-14T00:51:55.318Z,16.50
2019-01-14T00:52:55.309Z,16.60
2019-01-14T00:53:55.305Z,14.40
2019-01-14T00:54:55.287Z,16.90
2019-01-14T00:55:55.282Z,16.60
2019-01-14T00:56:55.265Z,17.70
2019-01-14T00:57:55.256Z,16.30
2019-01-14T00:58:55.252Z,14.80
2019-01-14T00:59:55.232Z,18.30
2019-01-14T01:00:55.223Z,21.30
2019-01-14T01:01:55.209Z,17.90
2019-01-14T01:02:55.199Z,14.30
2019-01-14T01:03:55.216Z,17.40
2019-01-14T01:04:55.183Z,15.60
2019-01-14T01:05:55.166Z,18.00
2019-01-14T01:06:55.156Z,14.20
2019-01-14T01:07:55.145Z,18.40
2019-01-14T01:08:55.135Z,16.60
2019-01-14T01:09:55.132Z,18.90
2019-01-14T01:10:55.112Z,22.30
2019-01-14T01:11:55.100Z,19.30
2019-01-14T01:12:55.092Z,18.70
2019-01-14T01:13:55.080Z,17.40
2019-01-14T01:14:55.079Z,23.90
2019-01-14T01:15:55.058Z,19.90
2019-01-14T01:16:55.049Z,21.10
2019-01-14T01:17:55.035Z,17.70
2019-01-14T01:18:55.025Z,25.50
2019-01-14T01:19:55.023Z,22.00
2019-01-14T01:20:55.005Z,16.80
2019-01-14T01:21:54.995Z,19.90
2019-01-14T01:22:54.982Z,20.80
2019-01-14T01:23:54.971Z,19.40
2019-01-14T01:24:54.967Z,19.40
2019-01-14T01:25:54.950Z,21.00
2019-01-14T01:26:54.941Z,24.40
2019-01-14T01:27:54.927Z,21.20
2019-01-14T01:28:54.918Z,21.50
2019-01-14T01:29:54.913Z,24.90
2019-01-14T01:30:54.896Z,25.00
2019-01-14T01:31:54.885Z,19.10
2019-01-14T01:32:54.872Z,20.30
2019-01-14T01:33:54.862Z,22.50
2019-01-14T01:34:54.859Z,22.40
2019-01-14T01:35:54.841Z,20.40
2019-01-14T01:36:54.828Z,20.20
2019-01-14T01:37:54.820Z,23.70
2019-01-14T01:38:54.807Z,21.20
2019-01-14T01:39:54.803Z,23.00
2019-01-14T01:40:54.785Z,21.20
2019-01-14T01:41:54.774Z,21.40
2019-01-14T01:42:54.763Z,28.90
2019-01-14T01:43:54.753Z,25.40
2019-01-14T01:44:54.751Z,25.20
2019-01-14T01:45:54.739Z,18.60
2019-01-14T01:46:54.723Z,21.70
2019-01-14T01:47:54.712Z,22.20
2019-01-14T01:48:54.699Z,26.80
2019-01-14T01:49:54.698Z,23.60
2019-01-14T01:50:54.677Z,21.40
2019-01-14T01:51:54.665Z,20.10
2019-01-14T01:52:54.657Z,26.00
2019-01-14T01:53:54.644Z,24.40
2019-01-14T01:54:54.642Z,24.20
2019-01-14T01:55:54.622Z,23.30
2019-01-14T01:56:54.615Z,21.40
2019-01-14T01:57:54.601Z,24.70
2019-01-14T01:58:54.589Z,27.30
2019-01-14T01:59:54.587Z,24.10
2019-01-14T02:00:54.567Z,21.30
2019-01-14T02:01:54.558Z,21.80
2019-01-14T02:02:54.548Z,20.10
2019-01-14T02:03:54.536Z,20.40
2019-01-14T02:04:54.533Z,21.90
2019-01-14T02:05:54.513Z,24.60
2019-01-14T02:06:54.501Z,25.50
2019-01-14T02:07:54.493Z,25.80
2019-01-14T02:08:54.527Z,21.80
2019-01-14T02:09:54.478Z,24.20
2019-01-14T02:10:54.458Z,25.20
2019-01-14T02:11:54.447Z,23.50
2019-01-14T02:12:54.445Z,23.80
2019-01-14T02:13:54.430Z,21.00
2019-01-14T02:14:54.424Z,22.30
2019-01-14T02:15:54.406Z,23.80
2019-01-14T02:16:54.394Z,23.00
2019-01-14T02:17:54.384Z,24.60
2019-01-14T02:18:54.430Z,22.90
2019-01-14T02:19:54.386Z,22.30
2019-01-14T02:20:54.351Z,23.40
2019-01-14T02:21:54.339Z,19.50
2019-01-14T02:22:54.328Z,21.90
2019-01-14T02:23:54.319Z,19.70
2019-01-14T02:24:54.307Z,22.20
2019-01-14T02:25:54.308Z,25.40
2019-01-14T02:26:54.286Z,23.90
2019-01-14T02:27:54.274Z,23.70
2019-01-14T02:28:54.263Z,22.70
2019-01-14T02:29:54.252Z,24.10
2019-01-14T02:30:54.251Z,21.90
2019-01-14T02:31:54.251Z,28.70
2019-01-14T02:32:54.222Z,22.50
2019-01-14T02:33:54.214Z,23.10
2019-01-14T02:34:54.198Z,20.80
2019-01-14T02:35:54.198Z,22.70
2019-01-14T02:36:54.179Z,19.60
2019-01-14T02:37:54.164Z,18.10
2019-01-14T02:38:54.157Z,22.60
2019-01-14T02:39:54.143Z,20.70
2019-01-14T02:40:54.141Z,20.40
2019-01-14T02:41:54.128Z,25.20
2019-01-14T02:42:54.112Z,24.70
2019-01-14T02:43:54.101Z,23.10
2019-01-14T02:45:01.121Z,19.20
2019-01-14T02:45:54.088Z,22.90
2019-01-14T02:46:54.067Z,24.10
2019-01-14T02:47:54.058Z,23.00
2019-01-14T02:48:54.047Z,20.50
2019-01-14T02:49:54.035Z,19.20
2019-01-14T02:50:54.033Z,19.10
2019-01-14T02:51:54.015Z,22.20
2019-01-14T02:52:54.002Z,20.70
2019-01-14T02:53:53.992Z,23.50
2019-01-14T02:54:53.986Z,18.30
2019-01-14T02:55:53.981Z,21.50
2019-01-14T02:56:53.959Z,18.90
2019-01-14T02:57:53.948Z,24.10
2019-01-14T02:58:53.939Z,22.00
2019-01-14T02:59:53.928Z,23.00
2019-01-14T03:00:53.930Z,17.20
2019-01-14T03:01:53.906Z,20.40
2019-01-14T03:02:53.896Z,20.70
2019-01-14T03:03:53.885Z,20.30
2019-01-14T03:04:53.875Z,13.80
2019-01-14T03:05:53.874Z,18.10
2019-01-14T03:06:57.939Z,16.10
2019-01-14T03:07:53.843Z,18.10
2019-01-14T03:08:53.832Z,15.40
2019-01-14T03:09:53.821Z,21.90
2019-01-14T03:10:53.817Z,18.30
2019-01-14T03:11:53.804Z,17.80
2019-01-14T03:12:53.790Z,18.80
2019-01-14T03:13:53.780Z,19.20
2019-01-14T03:14:53.768Z,18.00
2019-01-14T03:15:53.767Z,19.80
2019-01-14T03:16:53.747Z,18.10
2019-01-14T03:17:53.799Z,16.90
2019-01-14T03:18:53.723Z,20.00
2019-01-14T03:19:53.719Z,19.30
2019-01-14T03:20:53.713Z,17.90
2019-01-14T03:21:53.692Z,17.70
2019-01-14T03:22:53.683Z,19.10
2019-01-14T03:23:53.674Z,16.70
2019-01-14T03:24:53.662Z,19.50
2019-01-14T03:25:58.283Z,16.80
2019-01-14T03:26:53.641Z,18.70
2019-01-14T03:27:53.633Z,20.20
2019-01-14T03:28:53.617Z,19.30
2019-01-14T03:29:53.608Z,17.90
2019-01-14T03:30:53.629Z,16.70
2019-01-14T03:31:53.585Z,16.60
2019-01-14T03:32:53.581Z,21.00
2019-01-14T03:33:53.565Z,17.00
2019-01-14T03:34:53.552Z,16.90
2019-01-14T03:35:53.545Z,16.60
2019-01-14T03:36:53.543Z,13.90
2019-01-14T03:37:53.520Z,19.20
2019-01-14T03:38:53.508Z,15.60
2019-01-14T03:39:53.498Z,12.60
2019-01-14T03:40:53.492Z,16.50
2019-01-14T03:41:53.492Z,16.10
2019-01-14T03:42:53.467Z,15.90
2019-01-14T03:43:53.456Z,15.90
2019-01-14T03:44:53.446Z,16.10
2019-01-14T03:45:53.440Z,16.70
2019-01-14T03:46:53.433Z,17.20
2019-01-14T03:47:53.415Z,15.20
2019-01-14T03:48:53.402Z,17.90
2019-01-14T03:49:53.392Z,16.60
2019-01-14T03:50:53.384Z,17.10
2019-01-14T03:51:53.381Z,18.40
2019-01-14T03:52:53.361Z,19.30
2019-01-14T03:53:53.351Z,18.20
2019-01-14T03:54:53.337Z,17.50
2019-01-14T03:55:53.327Z,16.40
2019-01-14T03:56:53.326Z,17.70
2019-01-14T03:57:53.306Z,18.40
2019-01-14T03:58:53.295Z,17.30
2019-01-14T03:59:53.286Z,17.30
2019-01-14T04:00:53.278Z,17.00
2019-01-14T04:01:53.273Z,16.00
2019-01-14T04:02:53.256Z,17.60
2019-01-14T04:03:53.242Z,17.40
2019-01-14T04:04:53.234Z,16.80
2019-01-14T04:05:53.221Z,16.60
2019-01-14T04:06:53.218Z,18.00
2019-01-14T04:07:53.200Z,16.80
2019-01-14T04:08:53.189Z,17.50
2019-01-14T04:09:53.180Z,15.00
2019-01-14T04:10:53.176Z,17.50
2019-01-14T04:11:53.165Z,15.90
2019-01-14T04:12:53.145Z,17.20
2019-01-14T04:13:53.141Z,15.10
2019-01-14T04:14:53.127Z,16.80
2019-01-14T04:15:53.116Z,21.40
2019-01-14T04:16:53.114Z,21.30
2019-01-14T04:17:53.094Z,17.30
2019-01-14T04:18:53.084Z,17.50
2019-01-14T04:19:53.072Z,15.50
2019-01-14T04:20:53.062Z,18.60
2019-01-14T04:21:53.059Z,19.30
2019-01-14T04:22:53.040Z,18.00
2019-01-14T04:23:53.029Z,18.80
2019-01-14T04:24:53.018Z,18.60
2019-01-14T04:25:53.007Z,21.00
2019-01-14T04:26:53.005Z,20.30
2019-01-14T04:27:52.988Z,17.90
2019-01-14T04:28:52.976Z,18.30
2019-01-14T04:29:52.964Z,17.70
2019-01-14T04:30:52.953Z,18.30
2019-01-14T04:31:52.953Z,17.00
2019-01-14T04:32:52.932Z,17.70
2019-01-14T04:33:52.942Z,18.10
2019-01-14T04:34:52.912Z,19.70
2019-01-14T04:35:52.901Z,18.00
2019-01-14T04:36:52.915Z,19.10
2019-01-14T04:37:52.880Z,16.40
2019-01-14T04:38:52.870Z,18.60
2019-01-14T04:39:52.859Z,14.30
2019-01-14T04:40:52.849Z,19.20
2019-01-14T04:41:52.837Z,15.90
2019-01-14T04:42:52.834Z,16.70
2019-01-14T04:43:52.818Z,14.50
2019-01-14T04:44:52.824Z,15.80
2019-01-14T04:45:52.798Z,17.60
2019-01-14T04:46:52.785Z,17.90
2019-01-14T04:47:52.788Z,16.10
2019-01-14T04:48:52.762Z,19.30
2019-01-14T04:49:52.750Z,15.10
2019-01-14T04:50:52.743Z,15.00
2019-01-14T04:51:52.741Z,14.80
2019-01-14T04:52:52.728Z,13.20
2019-01-14T04:53:52.708Z,16.10
2019-01-14T04:54:52.698Z,14.10
2019-01-14T04:55:52.688Z,15.60
2019-01-14T04:56:52.681Z,14.30
2019-01-14T04:57:52.676Z,14.60
2019-01-14T04:58:52.658Z,16.40
2019-01-14T04:59:52.645Z,12.30
2019-01-14T05:00:52.634Z,15.90
2019-01-14T05:01:52.630Z,15.50
2019-01-14T05:02:52.621Z,11.60
2019-01-14T05:03:52.604Z,12.60
2019-01-14T05:04:52.595Z,13.70
2019-01-14T05:05:52.581Z,13.10
2019-01-14T05:06:52.570Z,11.80
2019-01-14T05:07:52.569Z,9.70
2019-01-14T05:08:52.553Z,13.60
2019-01-14T05:09:52.538Z,12.60
2019-01-14T05:10:52.528Z,16.00
2019-01-14T05:11:52.518Z,11.80
2019-01-14T05:12:52.516Z,10.50
2019-01-14T05:13:52.497Z,14.30
2019-01-14T05:14:52.486Z,13.60
2019-01-14T05:15:52.474Z,14.90
2019-01-14T05:16:52.469Z,12.90
2019-01-14T05:17:52.461Z,13.30
2019-01-14T05:18:52.442Z,15.20
2019-01-14T05:19:52.435Z,11.90
2019-01-14T05:20:52.424Z,14.30
2019-01-14T05:21:52.413Z,13.40
2019-01-14T05:22:52.409Z,12.80
2019-01-14T05:23:52.390Z,13.20
2019-01-14T05:24:52.378Z,14.70
2019-01-14T05:25:52.370Z,12.40
2019-01-14T05:26:52.360Z,12.50
2019-01-14T05:27:52.356Z,14.10
2019-01-14T05:28:52.335Z,11.90
2019-01-14T05:29:52.326Z,13.80
2019-01-14T05:30:52.316Z,11.70
2019-01-14T05:31:52.307Z,11.80
2019-01-14T05:32:52.306Z,14.90
2019-01-14T05:33:52.286Z,11.50
2019-01-14T05:34:52.271Z,14.10
2019-01-14T05:35:52.262Z,14.30
2019-01-14T05:36:52.255Z,12.10
2019-01-14T05:37:52.249Z,12.70
2019-01-14T05:38:52.228Z,11.70
2019-01-14T05:39:52.218Z,13.40
2019-01-14T05:40:52.209Z,13.60
2019-01-14T05:41:52.206Z,14.90
2019-01-14T05:42:52.220Z,14.40
2019-01-14T05:43:52.178Z,15.00
2019-01-14T05:44:52.165Z,14.30
2019-01-14T05:45:52.155Z,14.20
2019-01-14T05:46:52.143Z,15.10
2019-01-14T05:47:52.134Z,14.50
2019-01-14T05:48:52.132Z,13.10
2019-01-14T05:49:52.113Z,14.20
2019-01-14T05:50:52.100Z,16.70
2019-01-14T05:51:52.091Z,13.20
2019-01-14T05:52:52.081Z,12.30
2019-01-14T05:53:52.086Z,13.80
2019-01-14T05:54:52.056Z,14.90
2019-01-14T05:55:52.054Z,14.50
2019-01-14T05:56:52.038Z,16.20
2019-01-14T05:57:52.027Z,12.90
2019-01-14T05:58:52.023Z,13.00
2019-01-14T05:59:52.003Z,16.50
2019-01-14T06:00:51.994Z,13.60
2019-01-14T06:01:51.987Z,17.50
2019-01-14T06:02:51.972Z,13.80
2019-01-14T06:03:51.971Z,12.50
2019-01-14T06:04:51.952Z,15.60
2019-01-14T06:05:51.943Z,14.60
2019-01-14T06:06:51.937Z,15.90
2019-01-14T06:07:51.929Z,14.60
2019-01-14T06:08:51.916Z,14.70
2019-01-14T06:09:51.899Z,14.80
2019-01-14T06:10:51.886Z,12.50
2019-01-14T06:11:51.875Z,14.60
2019-01-14T06:12:51.864Z,14.60
2019-01-14T06:13:51.866Z,16.30
2019-01-14T06:14:51.844Z,15.90
2019-01-14T06:15:51.830Z,16.60
2019-01-14T06:16:51.827Z,15.50
2019-01-14T06:17:51.810Z,15.30
2019-01-14T06:18:51.818Z,14.90
2019-01-14T06:19:51.787Z,14.90
2019-01-14T06:20:51.778Z,14.50
2019-01-14T06:21:51.766Z,15.20
2019-01-14T06:22:51.755Z,13.20
2019-01-14T06:23:51.762Z,15.90
2019-01-14T06:24:51.735Z,16.20
2019-01-14T06:25:51.726Z,12.10
2019-01-14T06:26:51.712Z,13.50
2019-01-14T06:27:51.702Z,17.40
2019-01-14T06:28:51.700Z,14.60
2019-01-14T06:29:51.682Z,16.60
2019-01-14T06:30:51.675Z,16.20
2019-01-14T06:31:51.659Z,13.20
2019-01-14T06:32:51.649Z,11.70
2019-01-14T06:33:51.647Z,11.90
2019-01-14T06:34:51.630Z,14.80
2019-01-14T06:35:51.620Z,12.40
2019-01-14T06:36:51.609Z,13.60
2019-01-14T06:37:52.517Z,11.80
2019-01-14T06:38:51.610Z,8.20
2019-01-14T06:39:51.575Z,13.00
2019-01-14T06:40:51.567Z,10.90
2019-01-14T06:41:51.552Z,11.70
2019-01-14T06:42:51.557Z,10.70
2019-01-14T06:43:51.549Z,13.40
2019-01-14T06:44:51.521Z,12.40
2019-01-14T06:45:51.509Z,12.50
2019-01-14T06:46:51.499Z,11.10
2019-01-14T06:47:51.493Z,12.70
2019-01-14T06:48:51.518Z,10.00
2019-01-14T06:49:51.519Z,15.10
2019-01-14T06:50:51.455Z,14.20
2019-01-14T06:51:51.444Z,9.80
2019-01-14T06:52:51.434Z,9.00
2019-01-14T06:53:51.431Z,9.90
2019-01-14T06:54:51.415Z,11.00
2019-01-14T06:55:51.402Z,11.30
2019-01-14T06:56:51.390Z,10.90
2019-01-14T06:57:51.383Z,8.30
2019-01-14T06:58:51.378Z,9.60
2019-01-14T06:59:51.359Z,9.90
2019-01-14T07:00:51.350Z,8.90
2019-01-14T07:01:51.337Z,8.40
2019-01-14T07:02:51.328Z,8.00
2019-01-14T07:03:51.344Z,9.20
2019-01-14T07:04:51.308Z,6.30
2019-01-14T07:05:51.298Z,8.30
2019-01-14T07:06:51.284Z,7.60
2019-01-14T07:07:51.276Z,8.00
2019-01-14T07:08:51.262Z,9.80
2019-01-14T07:09:51.265Z,8.20
2019-01-14T07:10:51.245Z,9.20
2019-01-14T07:11:51.231Z,9.40
2019-01-14T07:12:51.221Z,8.70
2019-01-14T07:13:51.210Z,8.60
2019-01-14T07:14:51.207Z,8.40
2019-01-14T07:15:51.187Z,7.90
2019-01-14T07:16:51.177Z,10.30
2019-01-14T07:17:51.167Z,10.00
2019-01-14T07:18:51.157Z,8.60
2019-01-14T07:19:51.154Z,7.10
2019-01-14T07:20:51.135Z,10.40
2019-01-14T07:21:51.125Z,11.00
2019-01-14T07:22:51.115Z,10.40
2019-01-14T07:23:51.102Z,10.70
2019-01-14T07:24:51.100Z,10.90
2019-01-14T07:25:51.082Z,8.60
2019-01-14T07:26:51.073Z,11.30
2019-01-14T07:27:51.059Z,8.10
2019-01-14T07:28:51.052Z,11.50
2019-01-14T07:29:51.055Z,8.60
2019-01-14T07:30:51.028Z,7.50
2019-01-14T07:31:51.016Z,11.10
2019-01-14T07:32:51.006Z,10.00
2019-01-14T07:33:50.995Z,9.60
2019-01-14T07:34:50.992Z,10.00
2019-01-14T07:35:50.974Z,10.40
2019-01-14T07:36:50.964Z,9.60
2019-01-14T07:37:50.951Z,9.30
2019-01-14T07:38:50.941Z,9.50
2019-01-14T07:39:50.940Z,8.80
2019-01-14T07:40:50.924Z,12.60
2019-01-14T07:41:50.911Z,11.00
2019-01-14T07:42:50.900Z,11.40
2019-01-14T07:43:50.892Z,10.20
2019-01-14T07:44:50.889Z,10.10
2019-01-14T07:45:51.917Z,9.30
2019-01-14T07:46:50.872Z,9.40
2019-01-14T07:47:50.845Z,10.00
2019-01-14T07:48:50.833Z,9.40
2019-01-14T07:49:50.832Z,10.80
2019-01-14T07:50:50.812Z,9.30
2019-01-14T07:51:50.802Z,10.90
2019-01-14T07:52:50.792Z,10.90
2019-01-14T07:53:50.780Z,9.60
2019-01-14T07:54:50.778Z,10.10
2019-01-14T07:55:50.761Z,9.20
2019-01-14T07:56:50.749Z,11.10
2019-01-14T07:57:50.738Z,10.00
2019-01-14T07:58:50.727Z,12.20
2019-01-14T07:59:50.726Z,11.20
2019-01-14T08:00:50.706Z,12.20
2019-01-14T08:01:50.696Z,9.50
2019-01-14T08:02:50.685Z,9.60
2019-01-14T08:03:50.676Z,11.00
2019-01-14T08:04:50.675Z,9.90
2019-01-14T08:05:50.656Z,9.80
2019-01-14T08:06:50.642Z,10.90
2019-01-14T08:07:50.633Z,9.10
2019-01-14T08:08:50.620Z,10.50
2019-01-14T08:09:50.618Z,12.10
2019-01-14T08:10:50.600Z,9.30
2019-01-14T08:11:50.589Z,8.80
2019-01-14T08:12:50.577Z,9.20
2019-01-14T08:13:50.566Z,9.90
2019-01-14T08:14:50.564Z,10.60
2019-01-14T08:15:50.554Z,8.30
2019-01-14T08:16:50.540Z,9.70
2019-01-14T08:17:50.522Z,9.60
2019-01-14T08:18:50.512Z,7.80
2019-01-14T08:19:50.510Z,8.70
2019-01-14T08:20:50.493Z,8.40
2019-01-14T08:21:50.479Z,11.10
2019-01-14T08:22:50.470Z,9.80
2019-01-14T08:23:50.458Z,12.00
2019-01-14T08:24:50.447Z,8.80
2019-01-14T08:25:50.445Z,12.60
2019-01-14T08:26:50.426Z,9.90
2019-01-14T08:27:50.417Z,10.50
2019-01-14T08:28:50.405Z,9.10
2019-01-14T08:29:50.393Z,9.10
2019-01-14T08:30:50.393Z,9.80
2019-01-14T08:31:50.374Z,10.80
2019-01-14T08:32:50.361Z,12.50
2019-01-14T08:33:50.350Z,11.30
2019-01-14T08:34:50.340Z,12.80
2019-01-14T08:35:50.336Z,10.30
2019-01-14T08:36:50.321Z,11.30
2019-01-14T08:37:50.308Z,10.90
2019-01-14T08:38:50.305Z,12.10
2019-01-14T08:39:50.287Z,10.10
2019-01-14T08:40:50.291Z,10.70
2019-01-14T08:41:50.266Z,9.90
2019-01-14T08:42:50.257Z,12.10
2019-01-14T08:43:50.245Z,12.00
2019-01-14T08:44:50.241Z,9.50
2019-01-14T08:45:50.231Z,13.20
2019-01-14T08:46:50.211Z,12.20
2019-01-14T08:47:50.199Z,10.60
2019-01-14T08:48:50.194Z,12.40
2019-01-14T08:49:50.184Z,12.30
2019-01-14T08:50:50.177Z,11.30
2019-01-14T08:51:50.158Z,11.60
2019-01-14T08:52:50.145Z,13.80
2019-01-14T08:53:50.136Z,10.50
2019-01-14T08:54:50.129Z,12.70
2019-01-14T08:55:50.128Z,13.10
2019-01-14T08:56:50.103Z,10.80
2019-01-14T08:57:54.443Z,12.70
2019-01-14T08:58:50.081Z,12.00
2019-01-14T08:59:50.071Z,12.00
2019-01-14T09:00:50.069Z,10.60
2019-01-14T09:01:50.049Z,12.80
2019-01-14T09:02:50.040Z,10.60
2019-01-14T09:03:50.030Z,9.70
2019-01-14T09:04:50.019Z,13.60
2019-01-14T09:05:50.021Z,11.80
2019-01-14T09:06:49.999Z,10.50
2019-01-14T09:07:49.988Z,10.10
2019-01-14T09:08:49.975Z,13.70
2019-01-14T09:09:51.556Z,13.30
2019-01-14T09:10:49.965Z,11.50
2019-01-14T09:11:49.944Z,13.00
2019-01-14T09:12:49.933Z,9.10
2019-01-14T09:13:49.925Z,12.30
2019-01-14T09:14:49.910Z,11.10
2019-01-14T09:15:49.909Z,11.80
2019-01-14T09:16:49.900Z,11.80
2019-01-14T09:17:49.882Z,11.90
2019-01-14T09:18:49.873Z,11.30
2019-01-14T09:19:49.864Z,12.90
2019-01-14T09:20:49.856Z,11.80
2019-01-14T09:21:49.836Z,11.60
2019-01-14T09:22:49.833Z,11.60
2019-01-14T09:23:49.819Z,11.40
2019-01-14T09:24:49.804Z,11.80
2019-01-14T09:25:53.805Z,9.00
2019-01-14T09:26:49.782Z,10.20
2019-01-14T09:27:49.771Z,10.80
2019-01-14T09:28:49.762Z,9.40
2019-01-14T09:29:49.752Z,12.00
2019-01-14T09:30:49.751Z,8.90
2019-01-14T09:31:49.729Z,11.40
2019-01-14T09:32:49.720Z,9.50
2019-01-14T09:33:49.709Z,12.90
2019-01-14T09:34:49.699Z,10.80
2019-01-14T09:35:49.712Z,13.10
2019-01-14T09:36:49.675Z,10.30
2019-01-14T09:37:49.664Z,10.80
2019-01-14T09:38:49.655Z,10.20
2019-01-14T09:39:49.643Z,10.70
2019-01-14T09:40:49.634Z,9.10
2019-01-14T09:41:49.645Z,10.30
2019-01-14T09:42:49.622Z,9.40
2019-01-14T09:43:49.600Z,9.40
2019-01-14T09:44:49.592Z,9.10
2019-01-14T09:45:49.579Z,8.70
2019-01-14T09:46:49.579Z,10.70
2019-01-14T09:47:49.558Z,13.80
2019-01-14T09:48:49.551Z,10.80
2019-01-14T09:49:49.536Z,8.10
2019-01-14T09:50:49.525Z,9.30
2019-01-14T09:51:49.524Z,8.80
2019-01-14T09:52:49.504Z,9.90
2019-01-14T09:53:49.497Z,9.20
2019-01-14T09:54:49.482Z,8.20
2019-01-14T09:55:49.472Z,11.10
2019-01-14T09:56:49.472Z,9.10
2019-01-14T09:57:49.450Z,9.10
2019-01-14T09:58:49.443Z,9.00
2019-01-14T09:59:49.428Z,10.10
2019-01-14T10:00:49.418Z,9.60
2019-01-14T10:01:49.417Z,8.70
2019-01-14T10:02:49.399Z,8.40
2019-01-14T10:03:49.385Z,9.30
2019-01-14T10:04:49.375Z,9.10
2019-01-14T10:05:49.367Z,9.40
2019-01-14T10:06:49.369Z,9.00
2019-01-14T10:07:49.343Z,9.30
2019-01-14T10:08:49.333Z,10.60
2019-01-14T10:09:49.322Z,8.00
2019-01-14T10:10:49.313Z,7.50
2019-01-14T10:11:49.313Z,8.90
2019-01-14T10:12:49.291Z,11.00
2019-01-14T10:13:49.281Z,9.90
2019-01-14T10:14:49.270Z,7.90
2019-01-14T10:15:49.260Z,9.80
2019-01-14T10:16:49.260Z,7.70
2019-01-14T10:17:49.298Z,8.10
2019-01-14T10:18:49.226Z,9.20
2019-01-14T10:19:49.216Z,7.70
2019-01-14T10:20:49.206Z,8.10
2019-01-14T10:21:49.203Z,8.40
2019-01-14T10:22:49.184Z,7.30
2019-01-14T10:23:49.178Z,9.40
2019-01-14T10:24:49.164Z,6.30
2019-01-14T10:25:49.153Z,7.70
2019-01-14T10:26:49.155Z,8.90
2019-01-14T10:27:49.194Z,8.00
2019-01-14T10:28:49.123Z,7.60
2019-01-14T10:29:49.123Z,8.60
2019-01-14T10:30:49.100Z,9.30
2019-01-14T10:31:49.154Z,10.20
2019-01-14T10:32:49.084Z,7.90
2019-01-14T10:33:49.072Z,8.70
2019-01-14T10:34:49.059Z,8.90
2019-01-14T10:35:49.050Z,9.70
2019-01-14T10:36:49.047Z,12.50
2019-01-14T10:37:49.027Z,7.50
2019-01-14T10:38:50.477Z,8.60
2019-01-14T10:39:49.010Z,10.30
2019-01-14T10:40:48.994Z,8.80
2019-01-14T10:41:48.994Z,8.20
2019-01-14T10:42:48.973Z,9.50
2019-01-14T10:43:48.963Z,8.90
2019-01-14T10:44:48.951Z,9.40
2019-01-14T10:45:48.942Z,8.80
2019-01-14T10:46:48.949Z,8.10
2019-01-14T10:47:48.920Z,8.30
2019-01-14T10:48:48.908Z,11.10
2019-01-14T10:49:48.900Z,11.50
2019-01-14T10:50:48.887Z,8.70
2019-01-14T10:51:48.887Z,7.10
2019-01-14T10:52:48.866Z,7.10
2019-01-14T10:53:48.855Z,7.70
2019-01-14T10:54:48.847Z,7.40
2019-01-14T10:55:48.834Z,9.60
2019-01-14T10:56:48.823Z,6.60
2019-01-14T10:57:48.827Z,8.80
2019-01-14T10:58:48.802Z,7.30
2019-01-14T10:59:48.795Z,7.90
2019-01-14T11:00:48.790Z,7.10
2019-01-14T11:01:48.773Z,8.30
2019-01-14T11:02:48.768Z,7.40
2019-01-14T11:03:48.751Z,7.10
2019-01-14T11:04:48.743Z,7.50
2019-01-14T11:05:48.730Z,9.50
2019-01-14T11:06:48.717Z,6.40
2019-01-14T11:07:48.715Z,6.80
2019-01-14T11:08:48.697Z,7.40
2019-01-14T11:09:48.688Z,5.90
2019-01-14T11:10:48.680Z,7.70
2019-01-14T11:11:48.665Z,7.10
2019-01-14T11:12:48.665Z,7.10
2019-01-14T11:13:48.644Z,6.70
2019-01-14T11:14:48.635Z,8.80
2019-01-14T11:15:48.627Z,7.40
2019-01-14T11:16:48.612Z,9.00
2019-01-14T11:17:48.611Z,7.10
2019-01-14T11:18:48.590Z,10.10
2019-01-14T11:19:48.579Z,9.30
2019-01-14T11:20:48.569Z,8.00
2019-01-14T11:21:48.559Z,6.80
2019-01-14T11:22:48.560Z,8.70
2019-01-14T11:23:48.536Z,7.10
2019-01-14T11:24:48.526Z,8.40
2019-01-14T11:25:48.517Z,9.30
2019-01-14T11:26:48.521Z,7.50
2019-01-14T11:27:48.505Z,10.20
2019-01-14T11:28:48.483Z,6.80
2019-01-14T11:29:48.475Z,6.10
2019-01-14T11:30:48.463Z,8.50
2019-01-14T11:31:48.453Z,6.90
2019-01-14T11:32:48.453Z,8.00
2019-01-14T11:33:48.433Z,7.60
2019-01-14T11:34:48.422Z,5.70
2019-01-14T11:35:48.413Z,6.00
2019-01-14T11:36:48.399Z,6.50
2019-01-14T11:37:48.402Z,6.60
2019-01-14T11:38:48.381Z,6.80
2019-01-14T11:39:48.368Z,7.00
2019-01-14T11:40:48.360Z,6.70
2019-01-14T11:41:48.346Z,6.20
2019-01-14T11:42:48.344Z,6.60
2019-01-14T11:43:48.325Z,7.20
2019-01-14T11:44:48.314Z,4.90
2019-01-14T11:45:48.308Z,6.60
2019-01-14T11:46:48.293Z,7.50
2019-01-14T11:47:48.291Z,5.80
2019-01-14T11:48:48.273Z,7.30
2019-01-14T11:49:48.263Z,4.80
2019-01-14T11:50:48.254Z,5.20
2019-01-14T11:51:48.246Z,4.90
2019-01-14T11:52:48.239Z,8.30
2019-01-14T11:53:48.220Z,6.30
2019-01-14T11:54:48.207Z,5.30
2019-01-14T11:55:48.203Z,6.40
2019-01-14T11:56:48.186Z,6.00
2019-01-14T11:57:48.190Z,6.30
2019-01-14T11:58:48.166Z,7.50
2019-01-14T11:59:48.155Z,5.60
2019-01-14T12:00:48.146Z,5.00
2019-01-14T12:01:48.134Z,6.80
2019-01-14T12:02:48.133Z,5.50
2019-01-14T12:03:48.112Z,6.60
2019-01-14T12:04:48.104Z,5.60
2019-01-14T12:05:48.091Z,7.20
2019-01-14T12:06:48.080Z,5.30
2019-01-14T12:07:48.077Z,6.10
2019-01-14T12:08:48.059Z,6.00
2019-01-14T12:09:48.050Z,7.80
2019-01-14T12:10:48.038Z,6.00
2019-01-14T12:11:48.027Z,4.90
2019-01-14T12:12:48.057Z,5.00
2019-01-14T12:13:48.005Z,5.60
2019-01-14T12:14:47.997Z,6.30
2019-01-14T12:15:47.985Z,6.00
2019-01-14T12:16:47.982Z,6.60
2019-01-14T12:17:47.963Z,7.10
2019-01-14T12:18:47.962Z,7.60
2019-01-14T12:19:47.942Z,7.40
2019-01-14T12:20:47.938Z,7.80
2019-01-14T12:21:47.921Z,6.20
2019-01-14T12:22:47.911Z,5.80
2019-01-14T12:23:47.907Z,7.20
2019-01-14T12:24:47.889Z,6.50
2019-01-14T12:25:47.882Z,4.80
2019-01-14T12:26:47.871Z,7.10
2019-01-14T12:27:47.856Z,5.30
2019-01-14T12:28:47.853Z,4.60
2019-01-14T12:29:47.835Z,6.80
2019-01-14T12:30:47.827Z,5.40
2019-01-14T12:31:47.819Z,4.70
2019-01-14T12:32:47.806Z,5.30
2019-01-14T12:33:47.802Z,6.00
2019-01-14T12:34:47.782Z,6.20
2019-01-14T12:35:47.773Z,8.20
2019-01-14T12:36:47.763Z,5.30
2019-01-14T12:37:47.750Z,5.30
2019-01-14T12:38:47.750Z,6.20
2019-01-14T12:39:47.732Z,5.00
2019-01-14T12:40:47.720Z,5.10
2019-01-14T12:41:51.173Z,6.30
2019-01-14T12:42:47.699Z,6.60
2019-01-14T12:43:47.697Z,6.10
2019-01-14T12:44:47.675Z,5.10
2019-01-14T12:45:47.664Z,5.90
2019-01-14T12:46:47.655Z,4.10
2019-01-14T12:47:47.646Z,5.80
2019-01-14T12:48:47.642Z,4.90
2019-01-14T12:49:47.622Z,6.80
2019-01-14T12:50:47.611Z,4.50
2019-01-14T12:51:47.603Z,3.90
2019-01-14T12:52:47.593Z,6.40
2019-01-14T12:53:47.596Z,6.00
2019-01-14T12:54:47.569Z,5.00
2019-01-14T12:55:47.561Z,12.40
2019-01-14T12:56:47.547Z,7.30
2019-01-14T12:57:47.538Z,19.70
2019-01-14T12:58:47.534Z,12.00
2019-01-14T12:59:47.514Z,8.30
2019-01-14T13:00:47.556Z,4.90